sensor_id;sensor_type;location;lat;lon;timestamp;temperature;humidity
65864;SHT30;52639;51.180;20.460;2023-02-01T00:00:31;1.43;98.77
65864;SHT30;52639;51.180;20.460;2023-02-01T00:04:57;1.49;98.61
65864;SHT30;52639;51.180;20.460;2023-02-01T00:09:00;1.54;98.95
65864;SHT30;52639;51.180;20.460;2023-02-01T00:13:04;1.53;98.56
65864;SHT30;52639;51.180;20.460;2023-02-01T00:17:08;1.53;98.68
65864;SHT30;52639;51.180;20.460;2023-02-01T00:21:13;1.46;98.34
65864;SHT30;52639;51.180;20.460;2023-02-01T00:25:17;1.43;98.52
65864;SHT30;52639;51.180;20.460;2023-02-01T00:29:21;1.40;98.46
65864;SHT30;52639;51.180;20.460;2023-02-01T00:33:25;1.40;98.71
65864;SHT30;52639;51.180;20.460;2023-02-01T00:37:29;1.43;99.01
65864;SHT30;52639;51.180;20.460;2023-02-01T00:41:33;1.46;99.22
65864;SHT30;52639;51.180;20.460;2023-02-01T00:45:37;1.37;99.01
65864;SHT30;52639;51.180;20.460;2023-02-01T00:49:40;1.17;98.62
65864;SHT30;52639;51.180;20.460;2023-02-01T00:53:44;1.09;98.93
65864;SHT30;52639;51.180;20.460;2023-02-01T00:57:47;1.05;99.04
65864;SHT30;52639;51.180;20.460;2023-02-01T01:01:50;0.99;99.13
65864;SHT30;52639;51.180;20.460;2023-02-01T01:05:56;0.95;99.05
65864;SHT30;52639;51.180;20.460;2023-02-01T01:10:01;0.88;98.71
65864;SHT30;52639;51.180;20.460;2023-02-01T01:14:05;0.82;99.38
65864;SHT30;52639;51.180;20.460;2023-02-01T01:18:10;0.72;99.20
65864;SHT30;52639;51.180;20.460;2023-02-01T01:22:13;0.69;99.36
65864;SHT30;52639;51.180;20.460;2023-02-01T01:26:20;0.71;99.50
65864;SHT30;52639;51.180;20.460;2023-02-01T01:30:24;0.79;99.61
65864;SHT30;52639;51.180;20.460;2023-02-01T01:34:29;0.85;99.52
65864;SHT30;52639;51.180;20.460;2023-02-01T01:38:32;0.91;99.53
65864;SHT30;52639;51.180;20.460;2023-02-01T01:42:39;0.99;99.35
65864;SHT30;52639;51.180;20.460;2023-02-01T01:46:42;1.02;99.06
65864;SHT30;52639;51.180;20.460;2023-02-01T01:50:48;1.06;98.91
65864;SHT30;52639;51.180;20.460;2023-02-01T01:54:53;1.09;98.51
65864;SHT30;52639;51.180;20.460;2023-02-01T01:58:58;1.06;98.63
65864;SHT30;52639;51.180;20.460;2023-02-01T02:03:13;1.09;98.41
65864;SHT30;52639;51.180;20.460;2023-02-01T02:07:21;1.05;98.06
65864;SHT30;52639;51.180;20.460;2023-02-01T02:11:25;1.06;98.09
65864;SHT30;52639;51.180;20.460;2023-02-01T02:15:29;1.03;98.05
65864;SHT30;52639;51.180;20.460;2023-02-01T02:24:35;1.02;97.99
65864;SHT30;52639;51.180;20.460;2023-02-01T02:34:01;0.99;98.02
65864;SHT30;52639;51.180;20.460;2023-02-01T02:38:13;1.00;97.93
65864;SHT30;52639;51.180;20.460;2023-02-01T02:42:26;1.02;98.12
65864;SHT30;52639;51.180;20.460;2023-02-01T02:46:49;1.03;97.76
65864;SHT30;52639;51.180;20.460;2023-02-01T02:51:14;1.07;97.91
65864;SHT30;52639;51.180;20.460;2023-02-01T02:55:36;1.05;97.74
65864;SHT30;52639;51.180;20.460;2023-02-01T02:59:43;1.12;97.67
65864;SHT30;52639;51.180;20.460;2023-02-01T03:04:05;1.16;97.51
65864;SHT30;52639;51.180;20.460;2023-02-01T03:08:14;1.16;97.22
65864;SHT30;52639;51.180;20.460;2023-02-01T03:12:17;1.15;97.28
65864;SHT30;52639;51.180;20.460;2023-02-01T03:16:42;1.22;97.21
65864;SHT30;52639;51.180;20.460;2023-02-01T03:20:50;1.22;96.92
65864;SHT30;52639;51.180;20.460;2023-02-01T03:24:59;1.19;97.00
65864;SHT30;52639;51.180;20.460;2023-02-01T03:29:09;1.22;97.00
65864;SHT30;52639;51.180;20.460;2023-02-01T03:33:16;1.26;96.76
65864;SHT30;52639;51.180;20.460;2023-02-01T03:37:27;1.30;96.46
65864;SHT30;52639;51.180;20.460;2023-02-01T03:41:37;1.32;96.20
65864;SHT30;52639;51.180;20.460;2023-02-01T03:45:43;1.33;96.16
65864;SHT30;52639;51.180;20.460;2023-02-01T03:49:51;1.32;95.89
65864;SHT30;52639;51.180;20.460;2023-02-01T03:53:56;1.33;95.83
65864;SHT30;52639;51.180;20.460;2023-02-01T03:58:06;1.32;95.64
65864;SHT30;52639;51.180;20.460;2023-02-01T04:02:11;1.33;95.88
65864;SHT30;52639;51.180;20.460;2023-02-01T04:06:14;1.37;95.59
65864;SHT30;52639;51.180;20.460;2023-02-01T04:10:17;1.33;95.53
65864;SHT30;52639;51.180;20.460;2023-02-01T04:14:22;1.32;95.74
65864;SHT30;52639;51.180;20.460;2023-02-01T04:18:25;1.30;95.41
65864;SHT30;52639;51.180;20.460;2023-02-01T04:22:28;1.35;95.41
65864;SHT30;52639;51.180;20.460;2023-02-01T04:26:31;1.39;95.10
65864;SHT30;52639;51.180;20.460;2023-02-01T04:30:45;1.39;95.06
65864;SHT30;52639;51.180;20.460;2023-02-01T04:34:48;1.43;95.03
65864;SHT30;52639;51.180;20.460;2023-02-01T04:38:52;1.44;94.68
65864;SHT30;52639;51.180;20.460;2023-02-01T04:42:55;1.44;94.74
65864;SHT30;52639;51.180;20.460;2023-02-01T04:47:00;1.43;94.72
65864;SHT30;52639;51.180;20.460;2023-02-01T04:51:03;1.46;94.40
65864;SHT30;52639;51.180;20.460;2023-02-01T04:55:07;1.50;94.35
65864;SHT30;52639;51.180;20.460;2023-02-01T04:59:11;1.47;94.11
65864;SHT30;52639;51.180;20.460;2023-02-01T05:03:15;1.44;94.29
65864;SHT30;52639;51.180;20.460;2023-02-01T05:07:18;1.47;94.21
65864;SHT30;52639;51.180;20.460;2023-02-01T05:11:22;1.46;94.28
65864;SHT30;52639;51.180;20.460;2023-02-01T05:15:42;1.46;94.28
65864;SHT30;52639;51.180;20.460;2023-02-01T05:19:46;1.46;94.38
65864;SHT30;52639;51.180;20.460;2023-02-01T05:23:49;1.50;94.45
65864;SHT30;52639;51.180;20.460;2023-02-01T05:28:09;1.50;94.00
65864;SHT30;52639;51.180;20.460;2023-02-01T05:32:12;1.46;94.06
65864;SHT30;52639;51.180;20.460;2023-02-01T05:36:17;1.43;94.09
65864;SHT30;52639;51.180;20.460;2023-02-01T05:40:20;1.47;94.12
65864;SHT30;52639;51.180;20.460;2023-02-01T05:44:23;1.50;93.61
65864;SHT30;52639;51.180;20.460;2023-02-01T05:48:26;1.54;93.42
65864;SHT30;52639;51.180;20.460;2023-02-01T05:52:31;1.54;93.44
65864;SHT30;52639;51.180;20.460;2023-02-01T05:56:34;1.56;93.08
65864;SHT30;52639;51.180;20.460;2023-02-01T06:00:37;1.53;92.81
65864;SHT30;52639;51.180;20.460;2023-02-01T06:04:41;1.51;92.66
65864;SHT30;52639;51.180;20.460;2023-02-01T06:08:45;1.54;92.78
65864;SHT30;52639;51.180;20.460;2023-02-01T06:12:48;1.60;92.46
65864;SHT30;52639;51.180;20.460;2023-02-01T06:16:51;1.66;91.71
65864;SHT30;52639;51.180;20.460;2023-02-01T06:20:55;1.64;92.53
65864;SHT30;52639;51.180;20.460;2023-02-01T06:25:00;1.61;92.10
65864;SHT30;52639;51.180;20.460;2023-02-01T06:29:03;1.63;92.40
65864;SHT30;52639;51.180;20.460;2023-02-01T06:33:08;1.63;92.96
65864;SHT30;52639;51.180;20.460;2023-02-01T06:37:11;1.60;92.64
65864;SHT30;52639;51.180;20.460;2023-02-01T06:41:15;1.57;93.02
65864;SHT30;52639;51.180;20.460;2023-02-01T06:45:18;1.59;93.15
65864;SHT30;52639;51.180;20.460;2023-02-01T06:49:21;1.54;93.47
65864;SHT30;52639;51.180;20.460;2023-02-01T06:53:25;1.53;93.35
65864;SHT30;52639;51.180;20.460;2023-02-01T06:57:30;1.54;93.55
65864;SHT30;52639;51.180;20.460;2023-02-01T07:01:36;1.51;93.66
65864;SHT30;52639;51.180;20.460;2023-02-01T07:05:39;1.49;93.89
65864;SHT30;52639;51.180;20.460;2023-02-01T07:09:42;1.46;93.95
65864;SHT30;52639;51.180;20.460;2023-02-01T07:13:47;1.44;94.10
65864;SHT30;52639;51.180;20.460;2023-02-01T07:17:50;1.43;94.21
65864;SHT30;52639;51.180;20.460;2023-02-01T07:21:53;1.40;94.23
65864;SHT30;52639;51.180;20.460;2023-02-01T07:26:05;1.35;94.43
65864;SHT30;52639;51.180;20.460;2023-02-01T07:30:11;1.37;94.68
65864;SHT30;52639;51.180;20.460;2023-02-01T07:34:15;1.43;94.80
65864;SHT30;52639;51.180;20.460;2023-02-01T07:38:18;1.42;94.61
65864;SHT30;52639;51.180;20.460;2023-02-01T07:42:23;1.44;94.71
65864;SHT30;52639;51.180;20.460;2023-02-01T07:46:40;1.49;94.36
65864;SHT30;52639;51.180;20.460;2023-02-01T07:50:44;1.51;94.48
65864;SHT30;52639;51.180;20.460;2023-02-01T07:54:48;1.51;94.46
65864;SHT30;52639;51.180;20.460;2023-02-01T07:58:52;1.63;94.16
65864;SHT30;52639;51.180;20.460;2023-02-01T08:03:03;1.75;93.95
65864;SHT30;52639;51.180;20.460;2023-02-01T08:07:06;1.82;93.37
65864;SHT30;52639;51.180;20.460;2023-02-01T08:11:09;1.78;93.41
65864;SHT30;52639;51.180;20.460;2023-02-01T08:15:13;1.88;93.26
65864;SHT30;52639;51.180;20.460;2023-02-01T08:19:17;2.04;92.80
65864;SHT30;52639;51.180;20.460;2023-02-01T08:23:21;2.02;92.56
65864;SHT30;52639;51.180;20.460;2023-02-01T08:27:24;2.04;92.61
65864;SHT30;52639;51.180;20.460;2023-02-01T08:31:29;1.97;92.62
65864;SHT30;52639;51.180;20.460;2023-02-01T08:35:34;2.00;92.78
65864;SHT30;52639;51.180;20.460;2023-02-01T08:39:38;1.97;92.80
65864;SHT30;52639;51.180;20.460;2023-02-01T08:43:42;1.97;93.11
65864;SHT30;52639;51.180;20.460;2023-02-01T08:47:46;1.98;92.59
65864;SHT30;52639;51.180;20.460;2023-02-01T08:51:51;2.04;92.78
65864;SHT30;52639;51.180;20.460;2023-02-01T08:55:53;2.05;92.53
65864;SHT30;52639;51.180;20.460;2023-02-01T08:59:57;2.00;92.86
65864;SHT30;52639;51.180;20.460;2023-02-01T09:04:00;2.01;92.86
65864;SHT30;52639;51.180;20.460;2023-02-01T09:08:09;2.20;92.85
65864;SHT30;52639;51.180;20.460;2023-02-01T09:12:17;2.35;92.61
65864;SHT30;52639;51.180;20.460;2023-02-01T09:16:20;2.38;92.39
65864;SHT30;52639;51.180;20.460;2023-02-01T09:20:26;2.59;91.56
65864;SHT30;52639;51.180;20.460;2023-02-01T09:24:31;2.44;91.66
65864;SHT30;52639;51.180;20.460;2023-02-01T09:28:34;2.58;92.03
65864;SHT30;52639;51.180;20.460;2023-02-01T09:32:38;2.50;91.27
65864;SHT30;52639;51.180;20.460;2023-02-01T09:36:41;2.35;91.94
65864;SHT30;52639;51.180;20.460;2023-02-01T09:40:47;2.24;92.50
65864;SHT30;52639;51.180;20.460;2023-02-01T09:45:10;2.24;92.93
65864;SHT30;52639;51.180;20.460;2023-02-01T09:49:20;2.32;92.81
65864;SHT30;52639;51.180;20.460;2023-02-01T09:53:29;2.56;92.40
65864;SHT30;52639;51.180;20.460;2023-02-01T09:57:51;2.93;91.21
65864;SHT30;52639;51.180;20.460;2023-02-01T10:01:56;2.99;90.25
65864;SHT30;52639;51.180;20.460;2023-02-01T10:06:13;3.16;90.31
65864;SHT30;52639;51.180;20.460;2023-02-01T10:10:26;3.47;88.56
65864;SHT30;52639;51.180;20.460;2023-02-01T10:14:47;3.81;89.31
65864;SHT30;52639;51.180;20.460;2023-02-01T10:19:10;3.96;87.36
65864;SHT30;52639;51.180;20.460;2023-02-01T10:23:41;3.77;87.46
65864;SHT30;52639;51.180;20.460;2023-02-01T10:27:49;3.77;87.77
65864;SHT30;52639;51.180;20.460;2023-02-01T10:31:54;3.91;88.35
65864;SHT30;52639;51.180;20.460;2023-02-01T10:36:03;3.71;86.92
65864;SHT30;52639;51.180;20.460;2023-02-01T10:40:16;3.47;88.92
65864;SHT30;52639;51.180;20.460;2023-02-01T10:44:25;3.50;89.15
65864;SHT30;52639;51.180;20.460;2023-02-01T10:48:31;3.78;89.13
65864;SHT30;52639;51.180;20.460;2023-02-01T10:52:39;3.61;89.81
65864;SHT30;52639;51.180;20.460;2023-02-01T10:56:44;3.55;89.63
65864;SHT30;52639;51.180;20.460;2023-02-01T11:00:51;3.31;89.64
65864;SHT30;52639;51.180;20.460;2023-02-01T11:05:05;3.03;90.49
65864;SHT30;52639;51.180;20.460;2023-02-01T11:09:16;2.92;91.18
65864;SHT30;52639;51.180;20.460;2023-02-01T11:13:28;3.17;90.90
65864;SHT30;52639;51.180;20.460;2023-02-01T11:17:34;3.37;90.83
65864;SHT30;52639;51.180;20.460;2023-02-01T11:21:41;3.94;90.47
65864;SHT30;52639;51.180;20.460;2023-02-01T11:25:50;3.77;90.32
65864;SHT30;52639;51.180;20.460;2023-02-01T11:29:57;3.55;90.94
65864;SHT30;52639;51.180;20.460;2023-02-01T11:34:06;3.38;91.00
65864;SHT30;52639;51.180;20.460;2023-02-01T11:38:21;3.55;91.45
65864;SHT30;52639;51.180;20.460;2023-02-01T11:42:25;3.31;91.38
65864;SHT30;52639;51.180;20.460;2023-02-01T11:46:30;3.21;92.00
65864;SHT30;52639;51.180;20.460;2023-02-01T11:50:38;3.33;91.79
65864;SHT30;52639;51.180;20.460;2023-02-01T11:55:04;3.41;91.46
65864;SHT30;52639;51.180;20.460;2023-02-01T11:59:38;3.63;91.82
65864;SHT30;52639;51.180;20.460;2023-02-01T12:04:15;3.73;91.55
65864;SHT30;52639;51.180;20.460;2023-02-01T12:12:59;3.78;90.87
65864;SHT30;52639;51.180;20.460;2023-02-01T12:17:24;3.47;91.68
65864;SHT30;52639;51.180;20.460;2023-02-01T12:21:46;3.53;91.79
65864;SHT30;52639;51.180;20.460;2023-02-01T12:26:05;3.71;91.70
65864;SHT30;52639;51.180;20.460;2023-02-01T12:30:41;3.74;91.34
65864;SHT30;52639;51.180;20.460;2023-02-01T12:35:14;3.68;91.31
65864;SHT30;52639;51.180;20.460;2023-02-01T12:39:24;3.73;91.61
65864;SHT30;52639;51.180;20.460;2023-02-01T12:43:37;3.71;91.47
65864;SHT30;52639;51.180;20.460;2023-02-01T12:47:47;3.73;91.43
65864;SHT30;52639;51.180;20.460;2023-02-01T12:51:58;3.86;91.76
65864;SHT30;52639;51.180;20.460;2023-02-01T12:56:06;3.88;91.44
65864;SHT30;52639;51.180;20.460;2023-02-01T13:00:18;3.78;91.01
65864;SHT30;52639;51.180;20.460;2023-02-01T13:04:33;3.77;91.33
65864;SHT30;52639;51.180;20.460;2023-02-01T13:08:38;3.70;91.12
65864;SHT30;52639;51.180;20.460;2023-02-01T13:12:48;3.47;91.77
65864;SHT30;52639;51.180;20.460;2023-02-01T13:16:54;3.28;91.96
65864;SHT30;52639;51.180;20.460;2023-02-01T13:21:04;3.31;91.89
65864;SHT30;52639;51.180;20.460;2023-02-01T13:25:12;3.50;91.19
65864;SHT30;52639;51.180;20.460;2023-02-01T13:29:16;3.55;90.83
65864;SHT30;52639;51.180;20.460;2023-02-01T13:33:37;3.51;91.46
65864;SHT30;52639;51.180;20.460;2023-02-01T13:38:04;3.37;91.62
65864;SHT30;52639;51.180;20.460;2023-02-01T13:42:17;3.35;91.87
65864;SHT30;52639;51.180;20.460;2023-02-01T13:46:21;3.44;91.61
65864;SHT30;52639;51.180;20.460;2023-02-01T13:50:27;3.53;91.50
65864;SHT30;52639;51.180;20.460;2023-02-01T13:54:36;3.55;91.44
65864;SHT30;52639;51.180;20.460;2023-02-01T13:58:41;3.45;91.49
65864;SHT30;52639;51.180;20.460;2023-02-01T14:02:50;3.24;91.74
65864;SHT30;52639;51.180;20.460;2023-02-01T14:07:20;3.06;92.44
65864;SHT30;52639;51.180;20.460;2023-02-01T14:11:49;2.99;92.75
65864;SHT30;52639;51.180;20.460;2023-02-01T14:16:11;2.92;92.88
65864;SHT30;52639;51.180;20.460;2023-02-01T14:20:45;2.82;93.14
65864;SHT30;52639;51.180;20.460;2023-02-01T14:24:55;2.82;93.23
65864;SHT30;52639;51.180;20.460;2023-02-01T14:29:18;2.85;93.26
65864;SHT30;52639;51.180;20.460;2023-02-01T14:33:26;2.92;93.21
65864;SHT30;52639;51.180;20.460;2023-02-01T14:37:33;2.87;93.29
65864;SHT30;52639;51.180;20.460;2023-02-01T14:41:40;2.83;93.17
65864;SHT30;52639;51.180;20.460;2023-02-01T14:45:50;2.73;93.45
65864;SHT30;52639;51.180;20.460;2023-02-01T14:49:58;2.65;93.56
65864;SHT30;52639;51.180;20.460;2023-02-01T14:54:02;2.66;93.53
65864;SHT30;52639;51.180;20.460;2023-02-01T14:58:09;2.66;93.78
65864;SHT30;52639;51.180;20.460;2023-02-01T15:02:25;2.59;93.68
65864;SHT30;52639;51.180;20.460;2023-02-01T15:06:36;2.56;94.05
65864;SHT30;52639;51.180;20.460;2023-02-01T15:10:46;2.45;94.12
65864;SHT30;52639;51.180;20.460;2023-02-01T15:15:09;2.24;94.15
65864;SHT30;52639;51.180;20.460;2023-02-01T15:19:14;2.04;94.32
65864;SHT30;52639;51.180;20.460;2023-02-01T15:23:17;1.88;94.70
65864;SHT30;52639;51.180;20.460;2023-02-01T15:27:21;1.77;95.13
65864;SHT30;52639;51.180;20.460;2023-02-01T15:31:36;1.71;95.61
65864;SHT30;52639;51.180;20.460;2023-02-01T15:35:43;1.68;95.88
65864;SHT30;52639;51.180;20.460;2023-02-01T15:40:18;1.64;95.75
65864;SHT30;52639;51.180;20.460;2023-02-01T15:44:32;1.66;95.91
65864;SHT30;52639;51.180;20.460;2023-02-01T15:48:40;1.64;95.77
65864;SHT30;52639;51.180;20.460;2023-02-01T15:52:47;1.63;95.65
65864;SHT30;52639;51.180;20.460;2023-02-01T15:56:53;1.64;95.98
65864;SHT30;52639;51.180;20.460;2023-02-01T16:00:58;1.60;96.23
65864;SHT30;52639;51.180;20.460;2023-02-01T16:05:03;1.59;95.91
65864;SHT30;52639;51.180;20.460;2023-02-01T16:09:12;1.50;95.52
65864;SHT30;52639;51.180;20.460;2023-02-01T16:13:16;1.43;96.00
65864;SHT30;52639;51.180;20.460;2023-02-01T16:17:20;1.39;96.16
65864;SHT30;52639;51.180;20.460;2023-02-01T16:21:24;1.40;95.99
65864;SHT30;52639;51.180;20.460;2023-02-01T16:25:30;1.39;96.63
65864;SHT30;52639;51.180;20.460;2023-02-01T16:29:34;1.39;96.21
65864;SHT30;52639;51.180;20.460;2023-02-01T16:33:37;1.35;96.29
65864;SHT30;52639;51.180;20.460;2023-02-01T16:37:41;1.27;96.73
65864;SHT30;52639;51.180;20.460;2023-02-01T16:41:46;1.27;96.83
65864;SHT30;52639;51.180;20.460;2023-02-01T16:45:53;1.23;96.98
65864;SHT30;52639;51.180;20.460;2023-02-01T16:49:57;1.23;97.22
65864;SHT30;52639;51.180;20.460;2023-02-01T16:54:01;1.17;97.00
65864;SHT30;52639;51.180;20.460;2023-02-01T16:58:08;1.17;97.29
65864;SHT30;52639;51.180;20.460;2023-02-01T17:02:16;1.17;97.17
65864;SHT30;52639;51.180;20.460;2023-02-01T17:06:22;1.07;96.91
65864;SHT30;52639;51.180;20.460;2023-02-01T17:10:27;0.99;96.94
65864;SHT30;52639;51.180;20.460;2023-02-01T17:14:38;0.96;97.52
65864;SHT30;52639;51.180;20.460;2023-02-01T17:18:48;0.96;97.48
65864;SHT30;52639;51.180;20.460;2023-02-01T17:22:59;1.00;97.57
65864;SHT30;52639;51.180;20.460;2023-02-01T17:27:03;0.99;97.40
65864;SHT30;52639;51.180;20.460;2023-02-01T17:31:13;0.95;97.47
65864;SHT30;52639;51.180;20.460;2023-02-01T17:35:19;0.97;97.19
65864;SHT30;52639;51.180;20.460;2023-02-01T17:39:25;1.07;97.97
65864;SHT30;52639;51.180;20.460;2023-02-01T17:43:46;1.17;98.05
65864;SHT30;52639;51.180;20.460;2023-02-01T17:47:52;1.20;97.78
65864;SHT30;52639;51.180;20.460;2023-02-01T17:51:57;1.30;98.21
65864;SHT30;52639;51.180;20.460;2023-02-01T17:56:02;1.33;98.35
65864;SHT30;52639;51.180;20.460;2023-02-01T18:00:08;1.36;98.24
65864;SHT30;52639;51.180;20.460;2023-02-01T18:04:18;1.39;97.90
65864;SHT30;52639;51.180;20.460;2023-02-01T18:08:24;1.42;97.93
65864;SHT30;52639;51.180;20.460;2023-02-01T18:12:29;1.42;97.87
65864;SHT30;52639;51.180;20.460;2023-02-01T18:16:35;1.42;97.38
65864;SHT30;52639;51.180;20.460;2023-02-01T18:20:43;1.37;96.90
65864;SHT30;52639;51.180;20.460;2023-02-01T18:24:56;1.36;97.38
65864;SHT30;52639;51.180;20.460;2023-02-01T18:29:01;1.40;98.04
65864;SHT30;52639;51.180;20.460;2023-02-01T18:33:09;1.42;98.13
65864;SHT30;52639;51.180;20.460;2023-02-01T18:37:16;1.42;97.97
65864;SHT30;52639;51.180;20.460;2023-02-01T18:41:22;1.42;97.55
65864;SHT30;52639;51.180;20.460;2023-02-01T18:45:31;1.13;96.65
65864;SHT30;52639;51.180;20.460;2023-02-01T18:49:36;0.93;97.03
65864;SHT30;52639;51.180;20.460;2023-02-01T18:53:43;1.07;98.60
65864;SHT30;52639;51.180;20.460;2023-02-01T18:57:47;1.20;98.21
65864;SHT30;52639;51.180;20.460;2023-02-01T19:01:57;1.25;97.95
65864;SHT30;52639;51.180;20.460;2023-02-01T19:06:03;1.19;97.48
65864;SHT30;52639;51.180;20.460;2023-02-01T19:10:15;1.27;97.42
65864;SHT30;52639;51.180;20.460;2023-02-01T19:14:20;1.39;97.29
65864;SHT30;52639;51.180;20.460;2023-02-01T19:18:25;1.26;97.09
65864;SHT30;52639;51.180;20.460;2023-02-01T19:22:31;1.07;97.02
65864;SHT30;52639;51.180;20.460;2023-02-01T19:26:40;0.82;97.16
65864;SHT30;52639;51.180;20.460;2023-02-01T19:30:48;0.73;97.50
65864;SHT30;52639;51.180;20.460;2023-02-01T19:34:53;0.69;97.57
65864;SHT30;52639;51.180;20.460;2023-02-01T19:38:59;0.73;97.83
65864;SHT30;52639;51.180;20.460;2023-02-01T19:43:06;0.79;97.85
65864;SHT30;52639;51.180;20.460;2023-02-01T19:47:15;0.79;97.68
65864;SHT30;52639;51.180;20.460;2023-02-01T19:51:23;0.89;98.41
65864;SHT30;52639;51.180;20.460;2023-02-01T19:55:28;0.97;98.29
65864;SHT30;52639;51.180;20.460;2023-02-01T19:59:39;1.06;98.30
65864;SHT30;52639;51.180;20.460;2023-02-01T20:03:45;1.17;98.16
65864;SHT30;52639;51.180;20.460;2023-02-01T20:07:54;1.25;98.37
65864;SHT30;52639;51.180;20.460;2023-02-01T20:12:00;1.29;97.53
65864;SHT30;52639;51.180;20.460;2023-02-01T20:16:07;1.29;97.59
65864;SHT30;52639;51.180;20.460;2023-02-01T20:20:13;1.26;97.37
65864;SHT30;52639;51.180;20.460;2023-02-01T20:24:18;1.12;96.76
65864;SHT30;52639;51.180;20.460;2023-02-01T20:28:26;1.02;96.74
65864;SHT30;52639;51.180;20.460;2023-02-01T20:32:41;1.03;96.92
65864;SHT30;52639;51.180;20.460;2023-02-01T20:36:49;1.12;97.31
65864;SHT30;52639;51.180;20.460;2023-02-01T20:41:00;1.06;96.50
65864;SHT30;52639;51.180;20.460;2023-02-01T20:45:06;1.00;97.21
65864;SHT30;52639;51.180;20.460;2023-02-01T20:49:13;1.05;97.60
65864;SHT30;52639;51.180;20.460;2023-02-01T20:53:17;1.10;97.41
65864;SHT30;52639;51.180;20.460;2023-02-01T20:57:22;1.19;97.99
65864;SHT30;52639;51.180;20.460;2023-02-01T21:01:28;1.17;97.29
65864;SHT30;52639;51.180;20.460;2023-02-01T21:05:35;1.15;96.49
65864;SHT30;52639;51.180;20.460;2023-02-01T21:09:44;1.09;97.47
65864;SHT30;52639;51.180;20.460;2023-02-01T21:13:53;1.16;97.30
65864;SHT30;52639;51.180;20.460;2023-02-01T21:17:59;1.23;97.82
65864;SHT30;52639;51.180;20.460;2023-02-01T21:22:15;1.32;97.44
65864;SHT30;52639;51.180;20.460;2023-02-01T21:26:22;1.36;97.48
65864;SHT30;52639;51.180;20.460;2023-02-01T21:30:28;1.40;97.35
65864;SHT30;52639;51.180;20.460;2023-02-01T21:34:33;1.44;97.51
65864;SHT30;52639;51.180;20.460;2023-02-01T21:38:38;1.49;97.28
65864;SHT30;52639;51.180;20.460;2023-02-01T21:42:41;1.49;97.43
65864;SHT30;52639;51.180;20.460;2023-02-01T21:46:46;1.51;97.12
65864;SHT30;52639;51.180;20.460;2023-02-01T21:50:49;1.53;97.18
65864;SHT30;52639;51.180;20.460;2023-02-01T21:54:53;1.51;97.08
65864;SHT30;52639;51.180;20.460;2023-02-01T21:59:00;1.50;97.39
65864;SHT30;52639;51.180;20.460;2023-02-01T22:03:03;1.51;97.59
65864;SHT30;52639;51.180;20.460;2023-02-01T22:07:06;1.54;97.86
65864;SHT30;52639;51.180;20.460;2023-02-01T22:11:11;1.49;97.71
65864;SHT30;52639;51.180;20.460;2023-02-01T22:15:14;1.44;97.60
65864;SHT30;52639;51.180;20.460;2023-02-01T22:19:17;1.42;97.57
65864;SHT30;52639;51.180;20.460;2023-02-01T22:23:20;1.27;97.40
65864;SHT30;52639;51.180;20.460;2023-02-01T22:27:25;1.20;97.32
65864;SHT30;52639;51.180;20.460;2023-02-01T22:31:28;1.22;97.63
65864;SHT30;52639;51.180;20.460;2023-02-01T22:35:31;1.23;97.46
65864;SHT30;52639;51.180;20.460;2023-02-01T22:39:34;1.23;97.20
65864;SHT30;52639;51.180;20.460;2023-02-01T22:43:38;1.27;97.47
65864;SHT30;52639;51.180;20.460;2023-02-01T22:47:41;1.33;97.81
65864;SHT30;52639;51.180;20.460;2023-02-01T22:51:44;1.33;97.67
65864;SHT30;52639;51.180;20.460;2023-02-01T22:55:48;1.37;97.44
65864;SHT30;52639;51.180;20.460;2023-02-01T22:59:53;1.39;97.39
65864;SHT30;52639;51.180;20.460;2023-02-01T23:03:57;1.40;97.50
65864;SHT30;52639;51.180;20.460;2023-02-01T23:08:00;1.40;97.29
65864;SHT30;52639;51.180;20.460;2023-02-01T23:12:04;1.39;97.25
65864;SHT30;52639;51.180;20.460;2023-02-01T23:16:11;1.42;97.32
65864;SHT30;52639;51.180;20.460;2023-02-01T23:20:16;1.44;97.59
65864;SHT30;52639;51.180;20.460;2023-02-01T23:24:19;1.43;97.48
65864;SHT30;52639;51.180;20.460;2023-02-01T23:28:22;1.47;97.22
65864;SHT30;52639;51.180;20.460;2023-02-01T23:32:27;1.47;97.19
65864;SHT30;52639;51.180;20.460;2023-02-01T23:36:30;1.49;97.02
65864;SHT30;52639;51.180;20.460;2023-02-01T23:40:33;1.49;96.92
65864;SHT30;52639;51.180;20.460;2023-02-01T23:44:36;1.47;96.93
65864;SHT30;52639;51.180;20.460;2023-02-01T23:48:40;1.46;97.15
65864;SHT30;52639;51.180;20.460;2023-02-01T23:52:44;1.46;96.96
65864;SHT30;52639;51.180;20.460;2023-02-01T23:56:47;1.46;97.12
